createdAt,value
2022-09-07T00:01:05.697Z,18.20
2022-09-07T00:03:33.995Z,18.20
2022-09-07T00:06:07.762Z,18.20
2022-09-07T00:08:35.985Z,18.20
2022-09-07T00:11:07.380Z,18.20
2022-09-07T00:13:37.531Z,18.10
2022-09-07T00:16:07.673Z,18.00
2022-09-07T00:18:36.212Z,18.00
2022-09-07T00:21:06.455Z,17.90
2022-09-07T00:23:36.100Z,17.80
2022-09-07T00:26:07.481Z,17.80
2022-09-07T00:28:37.172Z,17.80
2022-09-07T00:31:05.295Z,17.80
2022-09-07T00:33:33.341Z,17.80
2022-09-07T00:36:01.458Z,17.70
2022-09-07T00:38:29.549Z,17.70
2022-09-07T00:40:57.622Z,17.60
2022-09-07T00:43:34.994Z,17.50
2022-09-07T00:46:03.906Z,17.50
2022-09-07T00:48:36.580Z,17.50
2022-09-07T00:51:07.406Z,17.40
2022-09-07T00:53:39.248Z,17.40
2022-09-07T00:56:08.425Z,17.40
2022-09-07T00:58:40.863Z,17.30
2022-09-07T01:01:09.873Z,17.30
2022-09-07T01:03:41.855Z,17.30
2022-09-07T01:06:16.598Z,17.30
2022-09-07T01:08:46.063Z,17.30
2022-09-07T01:11:14.411Z,17.30
2022-09-07T01:13:46.313Z,17.30
2022-09-07T01:16:19.783Z,17.30
2022-09-07T01:18:57.108Z,17.30
2022-09-07T01:21:28.056Z,17.30
2022-09-07T01:24:22.687Z,17.20
2022-09-07T01:27:24.290Z,17.20
2022-09-07T01:30:04.025Z,17.20
2022-09-07T01:32:44.347Z,17.20
2022-09-07T01:35:19.937Z,17.20
2022-09-07T01:37:57.155Z,17.20
2022-09-07T01:40:35.451Z,17.20
2022-09-07T01:43:11.428Z,17.20
2022-09-07T01:45:42.984Z,17.20
2022-09-07T01:48:15.976Z,17.20
2022-09-07T01:50:49.292Z,17.20
2022-09-07T01:53:22.317Z,17.10
2022-09-07T01:55:54.422Z,17.00
2022-09-07T01:58:27.603Z,17.00
2022-09-07T02:01:04.147Z,16.90
2022-09-07T02:03:37.086Z,16.90
2022-09-07T02:06:12.291Z,16.90
2022-09-07T02:08:45.185Z,16.90
2022-09-07T02:11:18.724Z,16.90
2022-09-07T02:13:51.876Z,16.90
2022-09-07T02:16:25.264Z,16.90
2022-09-07T02:18:57.139Z,16.90
2022-09-07T02:21:31.292Z,17.00
2022-09-07T02:24:05.404Z,17.00
2022-09-07T02:26:37.693Z,17.10
2022-09-07T02:29:05.941Z,17.10
2022-09-07T02:31:35.486Z,17.10
2022-09-07T02:34:03.678Z,17.10
2022-09-07T02:36:37.565Z,17.10
2022-09-07T02:39:05.713Z,17.10
2022-09-07T02:41:36.088Z,17.10
2022-09-07T02:44:08.907Z,17.10
2022-09-07T02:46:53.688Z,17.10
2022-09-07T02:49:36.335Z,17.10
2022-09-07T02:52:13.862Z,17.10
2022-09-07T02:54:55.775Z,17.10
2022-09-07T02:57:33.624Z,17.10
2022-09-07T03:05:53.200Z,17.20
2022-09-07T03:09:42.240Z,17.20
2022-09-07T03:12:12.628Z,17.20
2022-09-07T03:14:42.433Z,17.20
2022-09-07T03:17:11.488Z,17.20
2022-09-07T03:19:39.691Z,17.20
2022-09-07T03:22:08.154Z,17.20
2022-09-07T03:24:36.744Z,17.20
2022-09-07T03:27:05.082Z,17.20
2022-09-07T03:29:34.499Z,17.20
2022-09-07T03:32:02.589Z,17.20
2022-09-07T03:34:31.451Z,17.20
2022-09-07T03:36:59.486Z,17.30
2022-09-07T03:39:27.745Z,17.30
2022-09-07T03:41:55.850Z,17.20
2022-09-07T03:44:23.915Z,17.30
2022-09-07T03:46:53.292Z,17.40
2022-09-07T03:49:21.334Z,17.30
2022-09-07T03:51:49.404Z,17.40
2022-09-07T03:54:17.450Z,17.40
2022-09-07T03:56:45.494Z,17.40
2022-09-07T03:59:13.527Z,17.40
2022-09-07T04:01:41.665Z,17.40
2022-09-07T04:04:11.176Z,17.50
2022-09-07T04:06:39.331Z,17.40
2022-09-07T04:09:09.864Z,17.40
2022-09-07T04:11:38.030Z,17.40
2022-09-07T04:14:06.078Z,17.50
2022-09-07T04:16:34.342Z,17.40
2022-09-07T04:19:02.532Z,17.50
2022-09-07T04:21:33.593Z,17.50
2022-09-07T04:24:01.999Z,17.50
2022-09-07T04:26:31.718Z,17.40
2022-09-07T04:29:01.092Z,17.40
2022-09-07T04:31:29.534Z,17.30
2022-09-07T04:33:57.753Z,17.20
2022-09-07T04:36:25.890Z,17.20
2022-09-07T04:39:00.379Z,17.10
2022-09-07T04:41:29.448Z,17.00
2022-09-07T04:43:59.121Z,16.90
2022-09-07T04:46:29.780Z,16.90
2022-09-07T04:53:43.438Z,16.80
2022-09-07T04:56:16.880Z,16.80
2022-09-07T04:58:45.301Z,16.70
2022-09-07T05:01:14.955Z,16.70
2022-09-07T05:03:43.712Z,16.70
2022-09-07T05:06:12.444Z,16.70
2022-09-07T05:08:42.580Z,16.70
2022-09-07T05:11:13.122Z,16.70
2022-09-07T05:13:41.581Z,16.70
2022-09-07T05:16:11.576Z,16.70
2022-09-07T05:18:39.852Z,16.70
2022-09-07T05:21:12.738Z,16.80
2022-09-07T05:23:41.061Z,16.80
2022-09-07T05:26:09.149Z,16.80
2022-09-07T05:28:39.313Z,16.80
2022-09-07T05:31:23.741Z,16.90
2022-09-07T05:36:41.509Z,17.00
2022-09-07T05:39:10.692Z,17.10
2022-09-07T05:45:20.900Z,17.20
2022-09-07T05:47:50.742Z,17.40
2022-09-07T05:50:18.868Z,17.40
2022-09-07T05:52:47.969Z,17.40
2022-09-07T05:55:29.382Z,17.50
2022-09-07T05:57:58.265Z,17.70
2022-09-07T06:00:27.680Z,17.80
2022-09-07T06:02:55.834Z,17.90
2022-09-07T06:05:23.885Z,18.00
2022-09-07T06:07:53.093Z,18.10
2022-09-07T06:13:09.757Z,18.40
2022-09-07T06:15:39.218Z,18.70
2022-09-07T06:18:07.275Z,18.80
2022-09-07T06:20:35.318Z,19.00
2022-09-07T06:23:03.387Z,19.20
2022-09-07T06:25:31.415Z,19.30
2022-09-07T06:27:59.660Z,19.30
2022-09-07T06:30:27.793Z,19.40
2022-09-07T06:32:57.171Z,19.50
2022-09-07T06:35:25.182Z,19.90
2022-09-07T06:37:53.243Z,20.30
2022-09-07T06:40:21.249Z,20.50
2022-09-07T06:42:49.297Z,20.80
2022-09-07T06:45:17.478Z,20.80
2022-09-07T06:47:45.539Z,20.40
2022-09-07T06:50:15.197Z,20.00
2022-09-07T06:55:31.283Z,19.40
2022-09-07T06:57:59.328Z,19.10
2022-09-07T07:00:27.389Z,19.00
2022-09-07T07:02:55.531Z,19.00
2022-09-07T07:05:25.052Z,18.90
2022-09-07T07:07:53.135Z,18.90
2022-09-07T07:10:24.728Z,18.80
2022-09-07T07:12:57.439Z,18.70
2022-09-07T07:15:28.149Z,18.70
2022-09-07T07:18:02.324Z,18.70
2022-09-07T07:20:39.280Z,18.70
2022-09-07T07:23:07.805Z,18.60
2022-09-07T07:25:36.539Z,18.60
2022-09-07T07:30:56.218Z,18.70
2022-09-07T07:36:15.404Z,18.80
2022-09-07T07:39:01.250Z,18.90
2022-09-07T07:44:20.682Z,20.80
2022-09-07T07:46:50.089Z,21.00
2022-09-07T07:49:18.602Z,20.90
2022-09-07T07:54:37.114Z,20.70
2022-09-07T07:57:05.913Z,20.70
2022-09-07T07:59:33.944Z,20.30
2022-09-07T08:02:04.721Z,20.30
2022-09-07T08:04:33.974Z,21.60
2022-09-07T08:07:09.506Z,22.80
2022-09-07T08:09:39.937Z,23.90
2022-09-07T08:12:08.281Z,24.90
2022-09-07T08:14:40.965Z,24.90
2022-09-07T08:17:09.755Z,24.40
2022-09-07T08:19:37.939Z,23.90
2022-09-07T08:22:07.885Z,23.30
2022-09-07T08:24:35.922Z,23.40
2022-09-07T08:27:04.580Z,23.90
2022-09-07T08:29:35.220Z,24.20
2022-09-07T08:32:05.046Z,24.80
2022-09-07T08:34:33.145Z,25.00
2022-09-07T08:37:01.169Z,24.70
2022-09-07T08:39:31.102Z,24.10
2022-09-07T08:42:22.606Z,23.90
2022-09-07T08:44:54.873Z,23.90
2022-09-07T08:47:32.989Z,24.50
2022-09-07T08:50:05.348Z,25.10
2022-09-07T08:52:43.407Z,25.50
2022-09-07T08:55:17.470Z,25.80
2022-09-07T08:57:50.467Z,25.60
2022-09-07T09:00:20.026Z,25.80
2022-09-07T09:03:28.616Z,26.00
2022-09-07T09:05:45.619Z,25.90
2022-09-07T09:08:27.574Z,25.80
2022-09-07T09:11:05.098Z,26.30
2022-09-07T09:13:48.475Z,26.30
2022-09-07T09:16:22.151Z,26.00
2022-09-07T09:19:06.156Z,26.60
2022-09-07T09:21:36.073Z,27.10
2022-09-07T09:24:15.115Z,27.10
2022-09-07T09:26:47.576Z,27.10
2022-09-07T09:29:28.018Z,27.10
2022-09-07T09:31:56.506Z,27.20
2022-09-07T09:34:29.438Z,27.60
2022-09-07T09:36:58.394Z,28.00
2022-09-07T09:39:29.538Z,28.20
2022-09-07T09:42:02.361Z,27.80
2022-09-07T09:44:35.096Z,27.70
2022-09-07T09:49:53.686Z,26.50
2022-09-07T09:52:29.752Z,26.80
2022-09-07T09:55:17.292Z,27.10
2022-09-07T10:04:04.254Z,28.40
2022-09-07T10:06:33.187Z,28.60
2022-09-07T10:09:03.334Z,28.50
2022-09-07T10:14:36.258Z,27.80
2022-09-07T10:17:13.827Z,27.70
2022-09-07T10:19:44.092Z,27.50
2022-09-07T10:22:30.784Z,27.10
2022-09-07T10:24:58.830Z,26.60
2022-09-07T10:27:33.026Z,25.90
2022-09-07T10:30:05.898Z,25.80
2022-09-07T10:32:56.872Z,25.70
2022-09-07T10:35:29.566Z,25.70
2022-09-07T10:38:11.895Z,25.60
2022-09-07T10:40:45.348Z,25.70
2022-09-07T10:43:24.588Z,25.60
2022-09-07T10:46:08.205Z,25.40
2022-09-07T10:48:47.159Z,25.20
2022-09-07T10:51:18.830Z,25.00
2022-09-07T10:56:53.817Z,25.40
2022-09-07T11:02:37.252Z,26.10
2022-09-07T11:05:16.217Z,25.80
2022-09-07T11:07:59.300Z,25.60
2022-09-07T11:14:14.027Z,25.50
2022-09-07T11:16:50.967Z,25.80
2022-09-07T11:19:35.911Z,26.00
2022-09-07T11:22:19.036Z,25.70
2022-09-07T11:27:45.762Z,25.50
2022-09-07T11:38:03.746Z,26.30
2022-09-07T11:40:35.657Z,26.10
2022-09-07T11:43:14.073Z,25.70
2022-09-07T11:45:46.005Z,25.50
2022-09-07T11:48:19.960Z,25.40
2022-09-07T11:50:53.249Z,25.40
2022-09-07T11:53:25.787Z,25.70
2022-09-07T11:55:57.906Z,25.80
2022-09-07T11:59:03.641Z,26.00
2022-09-07T12:01:42.104Z,25.90
2022-09-07T12:04:39.979Z,26.10
2022-09-07T12:07:32.012Z,26.40
2022-09-07T12:10:30.671Z,26.20
2022-09-07T12:13:14.049Z,26.30
2022-09-07T12:15:52.054Z,26.60
2022-09-07T12:18:33.352Z,26.90
2022-09-07T12:21:01.479Z,26.80
2022-09-07T12:23:31.280Z,26.80
2022-09-07T12:26:51.462Z,26.80
2022-09-07T12:29:22.214Z,26.90
2022-09-07T12:32:07.325Z,27.00
2022-09-07T12:34:54.297Z,26.90
2022-09-07T12:37:42.680Z,26.90
2022-09-07T12:40:56.207Z,27.00
2022-09-07T12:43:46.152Z,27.00
2022-09-07T12:46:21.421Z,26.90
2022-09-07T12:48:56.753Z,26.70
2022-09-07T12:54:31.492Z,26.60
2022-09-07T13:00:02.259Z,26.10
2022-09-07T13:02:51.876Z,25.80
2022-09-07T13:05:33.336Z,26.20
2022-09-07T13:08:37.543Z,26.30
2022-09-07T13:11:34.151Z,26.30
2022-09-07T13:14:08.668Z,26.50
2022-09-07T13:20:07.850Z,26.30
2022-09-07T13:22:58.878Z,26.30
2022-09-07T13:26:03.204Z,26.30
2022-09-07T13:28:51.621Z,26.40
2022-09-07T13:31:49.015Z,26.40
2022-09-07T13:34:45.056Z,26.70
2022-09-07T13:37:22.863Z,27.00
2022-09-07T13:39:54.043Z,27.10
2022-09-07T13:42:25.834Z,26.80
2022-09-07T13:44:57.117Z,26.40
2022-09-07T13:47:38.005Z,26.40
2022-09-07T13:50:23.767Z,26.30
2022-09-07T13:53:10.775Z,26.20
2022-09-07T13:55:43.871Z,26.30
2022-09-07T13:58:17.868Z,26.40
2022-09-07T14:00:53.891Z,26.60
2022-09-07T14:03:27.057Z,26.60
2022-09-07T14:06:14.626Z,26.50
2022-09-07T14:08:47.369Z,26.30
2022-09-07T14:11:20.044Z,26.10
2022-09-07T14:14:06.681Z,25.90
2022-09-07T14:16:35.121Z,25.90
2022-09-07T14:19:16.622Z,25.90
2022-09-07T14:21:44.893Z,26.10
2022-09-07T14:24:28.612Z,26.30
2022-09-07T14:26:56.819Z,26.50
2022-09-07T14:29:26.931Z,26.60
2022-09-07T14:31:55.265Z,26.80
2022-09-07T14:34:29.747Z,26.90
2022-09-07T14:37:01.502Z,26.90
2022-09-07T14:39:31.027Z,27.00
2022-09-07T14:42:03.834Z,26.90
2022-09-07T14:44:38.728Z,27.00
2022-09-07T14:47:11.668Z,27.00
2022-09-07T14:49:41.725Z,26.90
2022-09-07T14:52:19.412Z,26.80
2022-09-07T14:54:52.979Z,26.80
2022-09-07T14:57:32.502Z,26.80
2022-09-07T15:00:20.601Z,26.70
2022-09-07T15:02:48.895Z,26.50
2022-09-07T15:05:23.105Z,26.50
2022-09-07T15:07:52.801Z,26.40
2022-09-07T15:10:41.326Z,26.50
2022-09-07T15:13:25.936Z,26.50
2022-09-07T15:16:02.439Z,26.60
2022-09-07T15:18:55.749Z,26.60
2022-09-07T15:21:27.455Z,26.60
2022-09-07T15:23:58.558Z,26.70
2022-09-07T15:29:20.046Z,26.70
2022-09-07T15:32:01.150Z,26.50
2022-09-07T15:34:32.325Z,26.50
2022-09-07T15:37:03.711Z,26.40
2022-09-07T15:39:34.429Z,26.30
2022-09-07T15:42:59.637Z,26.30
2022-09-07T15:44:50.669Z,26.20
2022-09-07T15:50:08.302Z,26.00
2022-09-07T15:52:37.822Z,26.10
2022-09-07T15:55:08.715Z,26.10
2022-09-07T15:58:02.229Z,26.10
2022-09-07T16:00:24.835Z,26.00
2022-09-07T16:03:09.114Z,26.10
2022-09-07T16:05:40.887Z,26.00
2022-09-07T16:08:25.981Z,25.70
2022-09-07T16:10:55.366Z,25.60
2022-09-07T16:13:24.699Z,25.50
2022-09-07T16:15:52.759Z,25.40
2022-09-07T16:18:20.870Z,25.30
2022-09-07T16:20:52.606Z,25.20
2022-09-07T16:23:23.471Z,25.10
2022-09-07T16:25:58.527Z,25.00
2022-09-07T16:28:27.118Z,24.90
2022-09-07T16:30:56.320Z,24.80
2022-09-07T16:33:31.620Z,24.70
2022-09-07T16:36:06.204Z,24.70
2022-09-07T16:38:44.018Z,24.80
2022-09-07T16:41:14.788Z,24.80
2022-09-07T16:43:42.916Z,24.80
2022-09-07T16:46:14.124Z,24.70
2022-09-07T16:48:42.912Z,24.60
2022-09-07T16:51:14.103Z,24.50
2022-09-07T16:53:43.837Z,24.40
2022-09-07T16:56:14.910Z,24.40
2022-09-07T16:58:46.247Z,24.30
2022-09-07T17:01:16.470Z,24.20
2022-09-07T17:03:45.337Z,24.10
2022-09-07T17:06:15.089Z,24.00
2022-09-07T17:08:45.052Z,23.90
2022-09-07T17:11:15.842Z,23.90
2022-09-07T17:13:44.867Z,23.80
2022-09-07T17:16:14.547Z,23.70
2022-09-07T17:21:33.249Z,23.60
2022-09-07T17:24:06.905Z,23.50
2022-09-07T17:26:35.359Z,23.40
2022-09-07T17:29:03.740Z,23.40
2022-09-07T17:34:21.415Z,23.20
2022-09-07T17:36:49.574Z,23.10
2022-09-07T17:39:19.627Z,23.10
2022-09-07T17:41:48.689Z,23.00
2022-09-07T17:44:18.784Z,22.90
2022-09-07T17:46:46.812Z,22.90
2022-09-07T17:49:16.646Z,22.90
2022-09-07T17:51:45.733Z,22.80
2022-09-07T17:54:15.870Z,22.80
2022-09-07T17:56:45.993Z,22.80
2022-09-07T18:02:02.231Z,22.70
2022-09-07T18:04:30.421Z,22.80
2022-09-07T18:06:58.527Z,22.80
2022-09-07T18:09:26.559Z,22.70
2022-09-07T18:11:56.036Z,22.60
2022-09-07T18:14:24.194Z,22.50
2022-09-07T18:16:53.901Z,22.40
2022-09-07T18:19:21.953Z,22.30
2022-09-07T18:21:50.590Z,22.20
2022-09-07T18:24:23.134Z,22.20
2022-09-07T18:26:52.796Z,22.10
2022-09-07T18:29:29.361Z,22.10
2022-09-07T18:32:00.591Z,22.00
2022-09-07T18:34:30.913Z,22.00
2022-09-07T18:36:59.694Z,22.00
2022-09-07T18:39:28.592Z,22.00
2022-09-07T18:41:57.105Z,21.90
2022-09-07T18:47:22.268Z,21.80
2022-09-07T18:49:57.053Z,21.70
2022-09-07T18:55:13.122Z,21.60
2022-09-07T18:57:41.267Z,21.60
2022-09-07T19:00:13.803Z,21.50
2022-09-07T19:02:42.005Z,21.40
2022-09-07T19:07:59.584Z,21.30
2022-09-07T19:10:27.711Z,21.20
2022-09-07T19:12:56.362Z,21.20
2022-09-07T19:15:25.847Z,21.20
2022-09-07T19:17:53.840Z,21.30
2022-09-07T19:20:21.925Z,21.20
2022-09-07T19:22:49.961Z,21.20
2022-09-07T19:25:19.335Z,21.10
2022-09-07T19:27:47.398Z,21.00
2022-09-07T19:30:17.434Z,21.00
2022-09-07T19:32:46.814Z,20.90
2022-09-07T19:35:14.874Z,20.80
2022-09-07T19:37:42.915Z,20.80
2022-09-07T19:40:15.843Z,20.80
2022-09-07T19:42:46.594Z,20.70
2022-09-07T19:45:15.482Z,20.60
2022-09-07T19:47:43.514Z,20.60
2022-09-07T19:50:13.046Z,20.60
2022-09-07T19:52:41.016Z,20.60
2022-09-07T19:55:09.955Z,20.50
2022-09-07T19:57:37.972Z,20.50
2022-09-07T20:00:07.004Z,20.50
2022-09-07T20:02:35.011Z,20.40
2022-09-07T20:05:02.961Z,20.40
2022-09-07T20:07:32.325Z,20.30
2022-09-07T20:10:00.296Z,20.30
2022-09-07T20:12:28.280Z,20.30
2022-09-07T20:14:56.303Z,20.30
2022-09-07T20:17:24.264Z,20.20
2022-09-07T20:19:52.242Z,20.30
2022-09-07T20:22:20.324Z,20.30
2022-09-07T20:24:49.671Z,20.30
2022-09-07T20:27:17.663Z,20.30
2022-09-07T20:29:45.694Z,20.30
2022-09-07T20:32:13.657Z,20.20
2022-09-07T20:34:41.649Z,20.20
2022-09-07T20:37:09.673Z,20.20
2022-09-07T20:39:39.551Z,20.20
2022-09-07T20:42:09.301Z,20.10
2022-09-07T20:44:37.372Z,20.00
2022-09-07T20:47:05.659Z,20.00
2022-09-07T20:49:33.757Z,20.00
2022-09-07T20:52:01.770Z,20.00
2022-09-07T20:54:29.784Z,20.00
2022-09-07T20:57:00.066Z,20.00
2022-09-07T20:59:33.015Z,20.10
2022-09-07T21:02:01.063Z,20.10
2022-09-07T21:04:29.156Z,20.20
2022-09-07T21:06:57.245Z,20.20
2022-09-07T21:09:25.354Z,20.10
2022-09-07T21:11:56.884Z,20.10
2022-09-07T21:14:25.323Z,20.10
2022-09-07T21:16:54.778Z,20.10
2022-09-07T21:19:22.976Z,20.20
2022-09-07T21:21:50.983Z,20.20
2022-09-07T21:24:20.420Z,20.20
2022-09-07T21:26:49.811Z,20.20
2022-09-07T21:29:20.299Z,20.30
2022-09-07T21:31:49.028Z,20.30
2022-09-07T21:34:18.573Z,20.40
2022-09-07T21:36:46.806Z,20.40
2022-09-07T21:39:15.141Z,20.40
2022-09-07T21:41:43.759Z,20.40
2022-09-07T21:44:13.717Z,20.30
2022-09-07T21:46:42.894Z,20.20
2022-09-07T21:49:11.228Z,20.20
2022-09-07T21:51:40.631Z,20.10
2022-09-07T21:54:08.758Z,20.20
2022-09-07T21:56:37.403Z,20.20
2022-09-07T21:59:06.600Z,20.20
2022-09-07T22:01:34.870Z,20.20
2022-09-07T22:04:05.516Z,20.20
2022-09-07T22:06:34.106Z,20.10
2022-09-07T22:09:05.119Z,20.10
2022-09-07T22:11:33.304Z,20.00
2022-09-07T22:14:02.891Z,20.00
2022-09-07T22:16:31.461Z,20.00
2022-09-07T22:18:59.568Z,20.00
2022-09-07T22:21:29.517Z,20.00
2022-09-07T22:23:59.422Z,20.10
2022-09-07T22:26:31.192Z,20.00
2022-09-07T22:28:59.913Z,20.10
2022-09-07T22:31:30.465Z,20.10
2022-09-07T22:33:59.624Z,20.10
2022-09-07T22:36:30.900Z,20.10
2022-09-07T22:39:00.796Z,20.00
2022-09-07T22:41:32.105Z,20.00
2022-09-07T22:44:00.831Z,20.10
2022-09-07T22:46:31.082Z,20.20
2022-09-07T22:49:00.380Z,20.10
2022-09-07T22:51:28.524Z,20.10
2022-09-07T22:53:57.021Z,20.10
2022-09-07T22:56:27.541Z,20.00
2022-09-07T22:58:59.478Z,20.00
2022-09-07T23:01:29.138Z,20.10
2022-09-07T23:03:57.720Z,20.00
2022-09-07T23:06:27.661Z,20.10
2022-09-07T23:08:57.563Z,20.10
2022-09-07T23:11:26.700Z,20.00
2022-09-07T23:13:57.395Z,20.00
2022-09-07T23:16:26.124Z,20.10
2022-09-07T23:18:54.546Z,20.10
2022-09-07T23:21:22.884Z,20.00
2022-09-07T23:23:52.237Z,20.00
2022-09-07T23:26:20.958Z,20.10
2022-09-07T23:28:53.368Z,20.00
2022-09-07T23:31:23.781Z,20.10
2022-09-07T23:33:52.276Z,20.20
2022-09-07T23:36:20.780Z,20.40
2022-09-07T23:38:48.886Z,20.30
2022-09-07T23:41:17.842Z,20.40
2022-09-07T23:43:46.286Z,20.40
2022-09-07T23:46:15.471Z,20.40
2022-09-07T23:48:46.008Z,20.30
2022-09-07T23:51:16.203Z,20.20
2022-09-07T23:58:03.491Z,20.20
